Аэропорт: Днепропетровск. Днепропетровск

ICAO: UKDD

METAR:
2019/01/21 23:00
UKDD 212300Z VRB01MPS 9999 BKN005 M08/M10 Q1021 R08/820550 NOSIG
METAR:
2019/01/21 18:24
TAF UKDD 211705Z 2118/2218 36006MPS 4000 BR OVC010 
      TEMPO 2120/2206 0200 -SN FZFG VV001 
      BECMG 2122/2124 VRB01MPS